sensor_id;sensor_type;location;lat;lon;timestamp;temperature;humidity
22917;DHT22;11624;53.250;7.456;2022-12-07T00:01:19;7.79;64.98
22917;DHT22;11624;53.250;7.456;2022-12-07T00:03:50;7.79;64.91
22917;DHT22;11624;53.250;7.456;2022-12-07T00:06:19;7.81;64.82
22917;DHT22;11624;53.250;7.456;2022-12-07T00:08:48;7.81;64.73
22917;DHT22;11624;53.250;7.456;2022-12-07T00:11:19;7.81;64.61
22917;DHT22;11624;53.250;7.456;2022-12-07T00:13:50;7.78;64.65
22917;DHT22;11624;53.250;7.456;2022-12-07T00:16:21;7.77;64.53
22917;DHT22;11624;53.250;7.456;2022-12-07T00:18:49;7.71;64.48
22917;DHT22;11624;53.250;7.456;2022-12-07T00:21:19;7.67;64.64
22917;DHT22;11624;53.250;7.456;2022-12-07T00:23:50;7.65;64.53
22917;DHT22;11624;53.250;7.456;2022-12-07T00:26:22;7.56;64.62
22917;DHT22;11624;53.250;7.456;2022-12-07T00:28:51;7.43;64.73
22917;DHT22;11624;53.250;7.456;2022-12-07T00:31:22;7.40;64.91
22917;DHT22;11624;53.250;7.456;2022-12-07T00:33:51;7.39;64.76
22917;DHT22;11624;53.250;7.456;2022-12-07T00:36:21;7.37;64.91
22917;DHT22;11624;53.250;7.456;2022-12-07T00:38:53;7.41;64.92
22917;DHT22;11624;53.250;7.456;2022-12-07T00:41:24;7.34;65.00
22917;DHT22;11624;53.250;7.456;2022-12-07T00:43:53;7.38;65.07
22917;DHT22;11624;53.250;7.456;2022-12-07T00:46:22;7.42;65.01
22917;DHT22;11624;53.250;7.456;2022-12-07T00:48:51;7.46;64.93
22917;DHT22;11624;53.250;7.456;2022-12-07T00:51:22;7.42;65.17
22917;DHT22;11624;53.250;7.456;2022-12-07T00:53:51;7.47;65.18
22917;DHT22;11624;53.250;7.456;2022-12-07T00:56:21;7.53;65.32
22917;DHT22;11624;53.250;7.456;2022-12-07T00:58:52;7.55;65.36
22917;DHT22;11624;53.250;7.456;2022-12-07T01:01:20;7.59;65.46
22917;DHT22;11624;53.250;7.456;2022-12-07T01:03:49;7.64;65.50
22917;DHT22;11624;53.250;7.456;2022-12-07T01:06:19;7.75;65.46
22917;DHT22;11624;53.250;7.456;2022-12-07T01:08:48;7.81;65.42
22917;DHT22;11624;53.250;7.456;2022-12-07T01:11:18;7.82;65.52
22917;DHT22;11624;53.250;7.456;2022-12-07T01:13:46;7.78;65.62
22917;DHT22;11624;53.250;7.456;2022-12-07T01:16:17;7.82;65.43
22917;DHT22;11624;53.250;7.456;2022-12-07T01:18:46;7.79;65.45
22917;DHT22;11624;53.250;7.456;2022-12-07T01:21:17;7.82;65.01
22917;DHT22;11624;53.250;7.456;2022-12-07T01:23:45;7.85;65.15
22917;DHT22;11624;53.250;7.456;2022-12-07T01:26:15;7.89;65.11
22917;DHT22;11624;53.250;7.456;2022-12-07T01:28:44;7.96;65.14
22917;DHT22;11624;53.250;7.456;2022-12-07T01:31:14;7.90;65.29
22917;DHT22;11624;53.250;7.456;2022-12-07T01:33:46;8.00;65.11
22917;DHT22;11624;53.250;7.456;2022-12-07T01:36:16;8.02;65.13
22917;DHT22;11624;53.250;7.456;2022-12-07T01:38:45;8.03;65.10
22917;DHT22;11624;53.250;7.456;2022-12-07T01:41:14;7.98;64.91
22917;DHT22;11624;53.250;7.456;2022-12-07T01:44:11;7.94;65.20
22917;DHT22;11624;53.250;7.456;2022-12-07T01:46:40;7.98;65.74
22917;DHT22;11624;53.250;7.456;2022-12-07T01:49:14;8.09;65.25
22917;DHT22;11624;53.250;7.456;2022-12-07T01:51:44;8.15;65.35
22917;DHT22;11624;53.250;7.456;2022-12-07T01:54:14;8.19;65.21
22917;DHT22;11624;53.250;7.456;2022-12-07T01:56:48;8.26;64.85
22917;DHT22;11624;53.250;7.456;2022-12-07T01:59:17;8.29;64.94
22917;DHT22;11624;53.250;7.456;2022-12-07T02:01:46;8.34;64.94
22917;DHT22;11624;53.250;7.456;2022-12-07T02:04:16;8.42;64.72
22917;DHT22;11624;53.250;7.456;2022-12-07T02:06:45;8.39;64.67
22917;DHT22;11624;53.250;7.456;2022-12-07T02:09:13;8.38;64.46
22917;DHT22;11624;53.250;7.456;2022-12-07T02:11:41;8.33;64.27
22917;DHT22;11624;53.250;7.456;2022-12-07T02:14:10;8.24;64.40
22917;DHT22;11624;53.250;7.456;2022-12-07T02:16:45;8.13;64.67
22917;DHT22;11624;53.250;7.456;2022-12-07T02:19:45;8.08;64.62
22917;DHT22;11624;53.250;7.456;2022-12-07T02:22:34;8.03;64.41
22917;DHT22;11624;53.250;7.456;2022-12-07T02:25:19;8.02;64.18
22917;DHT22;11624;53.250;7.456;2022-12-07T02:27:52;7.98;64.21
22917;DHT22;11624;53.250;7.456;2022-12-07T02:30:28;7.99;64.56
22917;DHT22;11624;53.250;7.456;2022-12-07T02:33:00;8.07;64.44
22917;DHT22;11624;53.250;7.456;2022-12-07T02:35:34;8.05;64.38
22917;DHT22;11624;53.250;7.456;2022-12-07T02:38:08;8.00;64.02
22917;DHT22;11624;53.250;7.456;2022-12-07T02:40:43;7.94;64.43
22917;DHT22;11624;53.250;7.456;2022-12-07T02:43:15;7.87;64.87
22917;DHT22;11624;53.250;7.456;2022-12-07T02:45:46;7.87;65.19
22917;DHT22;11624;53.250;7.456;2022-12-07T02:48:17;7.87;65.72
22917;DHT22;11624;53.250;7.456;2022-12-07T02:50:49;8.05;65.69
22917;DHT22;11624;53.250;7.456;2022-12-07T02:53:34;8.15;65.62
22917;DHT22;11624;53.250;7.456;2022-12-07T02:56:07;8.30;65.75
22917;DHT22;11624;53.250;7.456;2022-12-07T02:58:46;8.44;65.68
22917;DHT22;11624;53.250;7.456;2022-12-07T03:01:28;8.55;65.34
22917;DHT22;11624;53.250;7.456;2022-12-07T03:06:50;8.76;65.85
22917;DHT22;11624;53.250;7.456;2022-12-07T03:09:26;8.83;65.70
22917;DHT22;11624;53.250;7.456;2022-12-07T03:12:01;8.88;65.36
22917;DHT22;11624;53.250;7.456;2022-12-07T03:14:35;8.93;65.46
22917;DHT22;11624;53.250;7.456;2022-12-07T03:17:12;8.96;64.95
22917;DHT22;11624;53.250;7.456;2022-12-07T03:19:42;8.91;64.96
22917;DHT22;11624;53.250;7.456;2022-12-07T03:22:14;8.82;64.79
22917;DHT22;11624;53.250;7.456;2022-12-07T03:24:45;8.77;64.67
22917;DHT22;11624;53.250;7.456;2022-12-07T03:27:18;8.71;64.59
22917;DHT22;11624;53.250;7.456;2022-12-07T03:29:50;8.62;64.69
22917;DHT22;11624;53.250;7.456;2022-12-07T03:32:23;8.61;64.85
22917;DHT22;11624;53.250;7.456;2022-12-07T03:34:57;8.62;65.01
22917;DHT22;11624;53.250;7.456;2022-12-07T03:37:32;8.65;65.02
22917;DHT22;11624;53.250;7.456;2022-12-07T03:40:05;8.66;64.78
22917;DHT22;11624;53.250;7.456;2022-12-07T03:42:34;8.64;64.65
22917;DHT22;11624;53.250;7.456;2022-12-07T03:45:04;8.60;64.59
22917;DHT22;11624;53.250;7.456;2022-12-07T03:47:37;8.59;64.40
22917;DHT22;11624;53.250;7.456;2022-12-07T03:50:11;8.56;64.32
22917;DHT22;11624;53.250;7.456;2022-12-07T03:52:44;8.48;64.44
22917;DHT22;11624;53.250;7.456;2022-12-07T03:55:17;8.48;64.53
22917;DHT22;11624;53.250;7.456;2022-12-07T03:57:49;8.50;64.57
22917;DHT22;11624;53.250;7.456;2022-12-07T04:00:19;8.48;64.80
22917;DHT22;11624;53.250;7.456;2022-12-07T04:02:51;8.52;64.92
22917;DHT22;11624;53.250;7.456;2022-12-07T04:05:20;8.52;64.95
22917;DHT22;11624;53.250;7.456;2022-12-07T04:07:48;8.51;64.98
22917;DHT22;11624;53.250;7.456;2022-12-07T04:10:16;8.57;65.01
22917;DHT22;11624;53.250;7.456;2022-12-07T04:12:44;8.53;65.02
22917;DHT22;11624;53.250;7.456;2022-12-07T04:15:13;8.55;64.87
22917;DHT22;11624;53.250;7.456;2022-12-07T04:17:41;8.51;64.79
22917;DHT22;11624;53.250;7.456;2022-12-07T04:20:11;8.52;64.48
22917;DHT22;11624;53.250;7.456;2022-12-07T04:22:40;8.44;64.35
22917;DHT22;11624;53.250;7.456;2022-12-07T04:25:08;8.44;64.42
22917;DHT22;11624;53.250;7.456;2022-12-07T04:27:36;8.64;63.73
22917;DHT22;11624;53.250;7.456;2022-12-07T04:30:05;8.61;63.92
22917;DHT22;11624;53.250;7.456;2022-12-07T04:32:34;8.58;64.21
22917;DHT22;11624;53.250;7.456;2022-12-07T04:35:02;8.61;64.24
22917;DHT22;11624;53.250;7.456;2022-12-07T04:37:31;8.65;64.12
22917;DHT22;11624;53.250;7.456;2022-12-07T04:39:59;8.63;64.12
22917;DHT22;11624;53.250;7.456;2022-12-07T04:42:28;8.60;64.62
22917;DHT22;11624;53.250;7.456;2022-12-07T04:44:56;8.66;64.64
22917;DHT22;11624;53.250;7.456;2022-12-07T04:47:24;8.74;64.61
22917;DHT22;11624;53.250;7.456;2022-12-07T04:49:52;8.74;64.69
22917;DHT22;11624;53.250;7.456;2022-12-07T04:52:20;8.77;64.68
22917;DHT22;11624;53.250;7.456;2022-12-07T04:54:50;8.76;64.74
22917;DHT22;11624;53.250;7.456;2022-12-07T04:57:18;8.76;64.78
22917;DHT22;11624;53.250;7.456;2022-12-07T04:59:46;8.76;64.80
22917;DHT22;11624;53.250;7.456;2022-12-07T05:02:14;8.78;64.55
22917;DHT22;11624;53.250;7.456;2022-12-07T05:04:42;8.75;64.25
22917;DHT22;11624;53.250;7.456;2022-12-07T05:07:10;8.70;64.04
22917;DHT22;11624;53.250;7.456;2022-12-07T05:09:38;8.64;63.79
22917;DHT22;11624;53.250;7.456;2022-12-07T05:12:07;8.53;63.76
22917;DHT22;11624;53.250;7.456;2022-12-07T05:14:35;8.45;63.73
22917;DHT22;11624;53.250;7.456;2022-12-07T05:17:03;8.39;63.70
22917;DHT22;11624;53.250;7.456;2022-12-07T05:19:31;8.32;63.79
22917;DHT22;11624;53.250;7.456;2022-12-07T05:21:59;8.28;64.05
22917;DHT22;11624;53.250;7.456;2022-12-07T05:24:27;8.28;64.13
22917;DHT22;11624;53.250;7.456;2022-12-07T05:26:55;8.26;64.24
22917;DHT22;11624;53.250;7.456;2022-12-07T05:29:25;8.28;64.32
22917;DHT22;11624;53.250;7.456;2022-12-07T05:31:53;8.31;64.40
22917;DHT22;11624;53.250;7.456;2022-12-07T05:34:21;8.34;64.38
22917;DHT22;11624;53.250;7.456;2022-12-07T05:36:49;8.33;64.35
22917;DHT22;11624;53.250;7.456;2022-12-07T05:39:17;8.32;64.47
22917;DHT22;11624;53.250;7.456;2022-12-07T05:41:46;8.33;64.59
22917;DHT22;11624;53.250;7.456;2022-12-07T05:44:32;8.42;64.65
22917;DHT22;11624;53.250;7.456;2022-12-07T05:47:00;8.50;64.62
22917;DHT22;11624;53.250;7.456;2022-12-07T05:49:28;8.55;64.60
22917;DHT22;11624;53.250;7.456;2022-12-07T05:51:57;8.57;64.54
22917;DHT22;11624;53.250;7.456;2022-12-07T05:54:25;8.58;64.49
22917;DHT22;11624;53.250;7.456;2022-12-07T05:56:53;8.58;64.53
22917;DHT22;11624;53.250;7.456;2022-12-07T05:59:21;8.61;64.61
22917;DHT22;11624;53.250;7.456;2022-12-07T06:01:54;8.67;64.52
22917;DHT22;11624;53.250;7.456;2022-12-07T06:04:24;8.74;64.46
22917;DHT22;11624;53.250;7.456;2022-12-07T06:06:52;8.77;64.21
22917;DHT22;11624;53.250;7.456;2022-12-07T06:09:21;8.76;63.97
22917;DHT22;11624;53.250;7.456;2022-12-07T06:11:50;8.72;63.74
22917;DHT22;11624;53.250;7.456;2022-12-07T06:14:35;8.61;63.53
22917;DHT22;11624;53.250;7.456;2022-12-07T06:17:05;8.51;63.29
22917;DHT22;11624;53.250;7.456;2022-12-07T06:19:33;8.43;63.15
22917;DHT22;11624;53.250;7.456;2022-12-07T06:22:02;8.32;63.04
22917;DHT22;11624;53.250;7.456;2022-12-07T06:24:31;8.20;63.04
22917;DHT22;11624;53.250;7.456;2022-12-07T06:26:59;8.09;63.21
22917;DHT22;11624;53.250;7.456;2022-12-07T06:29:28;8.03;63.27
22917;DHT22;11624;53.250;7.456;2022-12-07T06:31:56;7.98;63.31
22917;DHT22;11624;53.250;7.456;2022-12-07T06:34:26;7.92;63.37
22917;DHT22;11624;53.250;7.456;2022-12-07T06:36:54;7.88;63.44
22917;DHT22;11624;53.250;7.456;2022-12-07T06:39:24;7.88;63.37
22917;DHT22;11624;53.250;7.456;2022-12-07T06:41:52;7.83;63.31
22917;DHT22;11624;53.250;7.456;2022-12-07T06:44:21;7.78;63.32
22917;DHT22;11624;53.250;7.456;2022-12-07T06:46:50;7.76;63.29
22917;DHT22;11624;53.250;7.456;2022-12-07T06:49:33;7.73;63.21
22917;DHT22;11624;53.250;7.456;2022-12-07T06:52:02;7.68;63.43
22917;DHT22;11624;53.250;7.456;2022-12-07T06:54:31;7.69;63.69
22917;DHT22;11624;53.250;7.456;2022-12-07T06:56:59;7.76;63.89
22917;DHT22;11624;53.250;7.456;2022-12-07T06:59:27;7.78;64.45
22917;DHT22;11624;53.250;7.456;2022-12-07T07:01:55;7.88;64.42
22917;DHT22;11624;53.250;7.456;2022-12-07T07:04:23;7.93;64.76
22917;DHT22;11624;53.250;7.456;2022-12-07T07:06:53;8.00;64.84
22917;DHT22;11624;53.250;7.456;2022-12-07T07:09:25;8.13;64.85
22917;DHT22;11624;53.250;7.456;2022-12-07T07:11:54;8.17;64.91
22917;DHT22;11624;53.250;7.456;2022-12-07T07:14:22;8.19;65.00
22917;DHT22;11624;53.250;7.456;2022-12-07T07:16:50;8.27;64.72
22917;DHT22;11624;53.250;7.456;2022-12-07T07:19:18;8.28;64.41
22917;DHT22;11624;53.250;7.456;2022-12-07T07:21:46;8.26;64.10
22917;DHT22;11624;53.250;7.456;2022-12-07T07:24:16;8.15;63.89
22917;DHT22;11624;53.250;7.456;2022-12-07T07:26:44;8.08;63.78
22917;DHT22;11624;53.250;7.456;2022-12-07T07:29:12;8.04;63.58
22917;DHT22;11624;53.250;7.456;2022-12-07T07:31:40;7.97;63.48
22917;DHT22;11624;53.250;7.456;2022-12-07T07:34:08;7.87;63.57
22917;DHT22;11624;53.250;7.456;2022-12-07T07:36:36;7.79;63.85
22917;DHT22;11624;53.250;7.456;2022-12-07T07:39:04;7.77;63.97
22917;DHT22;11624;53.250;7.456;2022-12-07T07:41:34;7.73;64.08
22917;DHT22;11624;53.250;7.456;2022-12-07T07:44:02;7.61;64.43
22917;DHT22;11624;53.250;7.456;2022-12-07T07:46:30;7.63;64.36
22917;DHT22;11624;53.250;7.456;2022-12-07T07:49:00;7.67;64.54
22917;DHT22;11624;53.250;7.456;2022-12-07T07:51:28;7.72;64.47
22917;DHT22;11624;53.250;7.456;2022-12-07T07:53:56;7.72;64.56
22917;DHT22;11624;53.250;7.456;2022-12-07T07:56:24;7.79;64.67
22917;DHT22;11624;53.250;7.456;2022-12-07T07:58:53;7.86;64.53
22917;DHT22;11624;53.250;7.456;2022-12-07T08:01:21;7.87;64.53
22917;DHT22;11624;53.250;7.456;2022-12-07T08:03:49;7.85;64.71
22917;DHT22;11624;53.250;7.456;2022-12-07T08:06:17;7.84;64.76
22917;DHT22;11624;53.250;7.456;2022-12-07T08:08:45;7.83;64.81
22917;DHT22;11624;53.250;7.456;2022-12-07T08:11:13;7.87;64.84
22917;DHT22;11624;53.250;7.456;2022-12-07T08:13:42;7.97;64.80
22917;DHT22;11624;53.250;7.456;2022-12-07T08:16:13;8.06;64.64
22917;DHT22;11624;53.250;7.456;2022-12-07T08:18:42;8.01;64.59
22917;DHT22;11624;53.250;7.456;2022-12-07T08:21:13;7.93;64.70
22917;DHT22;11624;53.250;7.456;2022-12-07T08:23:42;7.96;64.37
22917;DHT22;11624;53.250;7.456;2022-12-07T08:26:12;7.88;64.39
22917;DHT22;11624;53.250;7.456;2022-12-07T08:28:40;7.90;64.49
22917;DHT22;11624;53.250;7.456;2022-12-07T08:31:11;7.86;64.55
22917;DHT22;11624;53.250;7.456;2022-12-07T08:33:41;7.96;64.82
22917;DHT22;11624;53.250;7.456;2022-12-07T08:36:11;7.98;64.72
22917;DHT22;11624;53.250;7.456;2022-12-07T08:38:40;8.03;64.45
22917;DHT22;11624;53.250;7.456;2022-12-07T08:41:29;8.01;64.47
22917;DHT22;11624;53.250;7.456;2022-12-07T08:43:57;8.01;64.59
22917;DHT22;11624;53.250;7.456;2022-12-07T08:46:26;8.11;64.59
22917;DHT22;11624;53.250;7.456;2022-12-07T08:49:01;8.19;64.50
22917;DHT22;11624;53.250;7.456;2022-12-07T08:51:30;8.32;64.51
22917;DHT22;11624;53.250;7.456;2022-12-07T08:53:58;8.41;64.50
22917;DHT22;11624;53.250;7.456;2022-12-07T08:56:28;8.51;64.34
22917;DHT22;11624;53.250;7.456;2022-12-07T08:58:57;8.52;64.33
22917;DHT22;11624;53.250;7.456;2022-12-07T09:01:25;8.53;64.49
22917;DHT22;11624;53.250;7.456;2022-12-07T09:03:53;8.66;64.59
22917;DHT22;11624;53.250;7.456;2022-12-07T09:06:23;8.77;64.80
22917;DHT22;11624;53.250;7.456;2022-12-07T09:08:53;8.96;64.84
22917;DHT22;11624;53.250;7.456;2022-12-07T09:11:23;9.07;64.90
22917;DHT22;11624;53.250;7.456;2022-12-07T09:13:55;9.23;64.56
22917;DHT22;11624;53.250;7.456;2022-12-07T09:16:23;9.37;64.52
22917;DHT22;11624;53.250;7.456;2022-12-07T09:18:51;9.57;64.35
22917;DHT22;11624;53.250;7.456;2022-12-07T09:21:19;9.69;64.24
22917;DHT22;11624;53.250;7.456;2022-12-07T09:23:48;9.85;64.18
22917;DHT22;11624;53.250;7.456;2022-12-07T09:26:16;10.00;63.84
22917;DHT22;11624;53.250;7.456;2022-12-07T09:28:44;10.00;63.50
22917;DHT22;11624;53.250;7.456;2022-12-07T09:31:12;10.04;63.44
22917;DHT22;11624;53.250;7.456;2022-12-07T09:33:53;10.14;63.25
22917;DHT22;11624;53.250;7.456;2022-12-07T09:36:21;10.21;63.35
22917;DHT22;11624;53.250;7.456;2022-12-07T09:38:51;10.22;63.31
22917;DHT22;11624;53.250;7.456;2022-12-07T09:41:19;10.23;62.48
22917;DHT22;11624;53.250;7.456;2022-12-07T09:43:49;10.27;62.75
22917;DHT22;11624;53.250;7.456;2022-12-07T09:46:19;10.30;62.40
22917;DHT22;11624;53.250;7.456;2022-12-07T09:48:49;10.26;62.27
22917;DHT22;11624;53.250;7.456;2022-12-07T09:51:19;10.29;62.21
22917;DHT22;11624;53.250;7.456;2022-12-07T09:53:54;10.29;61.85
22917;DHT22;11624;53.250;7.456;2022-12-07T09:56:23;10.29;62.18
22917;DHT22;11624;53.250;7.456;2022-12-07T09:58:58;10.31;62.35
22917;DHT22;11624;53.250;7.456;2022-12-07T10:01:29;10.25;62.22
22917;DHT22;11624;53.250;7.456;2022-12-07T10:04:05;10.33;62.26
22917;DHT22;11624;53.250;7.456;2022-12-07T10:06:34;10.38;62.21
22917;DHT22;11624;53.250;7.456;2022-12-07T10:09:09;10.42;61.86
22917;DHT22;11624;53.250;7.456;2022-12-07T10:12:03;10.38;61.84
22917;DHT22;11624;53.250;7.456;2022-12-07T10:14:34;10.50;62.11
22917;DHT22;11624;53.250;7.456;2022-12-07T10:17:35;10.57;61.93
22917;DHT22;11624;53.250;7.456;2022-12-07T10:20:13;10.67;61.85
22917;DHT22;11624;53.250;7.456;2022-12-07T10:22:55;10.75;61.76
22917;DHT22;11624;53.250;7.456;2022-12-07T10:25:29;10.58;59.40
22917;DHT22;11624;53.250;7.456;2022-12-07T10:28:11;10.62;59.95
22917;DHT22;11624;53.250;7.456;2022-12-07T10:30:48;10.62;60.18
22917;DHT22;11624;53.250;7.456;2022-12-07T10:33:34;10.58;60.31
22917;DHT22;11624;53.250;7.456;2022-12-07T10:36:17;10.74;59.92
22917;DHT22;11624;53.250;7.456;2022-12-07T10:38:47;10.77;60.30
22917;DHT22;11624;53.250;7.456;2022-12-07T10:41:17;10.79;59.99
22917;DHT22;11624;53.250;7.456;2022-12-07T10:43:56;10.65;59.83
22917;DHT22;11624;53.250;7.456;2022-12-07T10:47:06;10.57;60.13
22917;DHT22;11624;53.250;7.456;2022-12-07T10:52:45;10.46;60.71
22917;DHT22;11624;53.250;7.456;2022-12-07T10:55:21;10.33;59.83
22917;DHT22;11624;53.250;7.456;2022-12-07T10:58:15;10.36;59.43
22917;DHT22;11624;53.250;7.456;2022-12-07T11:00:56;10.33;58.61
22917;DHT22;11624;53.250;7.456;2022-12-07T11:03:37;10.29;57.99
22917;DHT22;11624;53.250;7.456;2022-12-07T11:06:20;10.45;58.11
22917;DHT22;11624;53.250;7.456;2022-12-07T11:09:21;10.48;58.02
22917;DHT22;11624;53.250;7.456;2022-12-07T11:12:20;10.55;58.03
22917;DHT22;11624;53.250;7.456;2022-12-07T11:14:56;10.58;57.67
22917;DHT22;11624;53.250;7.456;2022-12-07T11:17:33;10.58;57.33
22917;DHT22;11624;53.250;7.456;2022-12-07T11:20:12;10.55;56.58
22917;DHT22;11624;53.250;7.456;2022-12-07T11:22:46;10.51;57.26
22917;DHT22;11624;53.250;7.456;2022-12-07T11:25:23;10.55;57.67
22917;DHT22;11624;53.250;7.456;2022-12-07T11:28:08;10.69;57.45
22917;DHT22;11624;53.250;7.456;2022-12-07T11:30:42;10.74;57.31
22917;DHT22;11624;53.250;7.456;2022-12-07T11:33:20;10.82;57.48
22917;DHT22;11624;53.250;7.456;2022-12-07T11:36:01;10.90;56.51
22917;DHT22;11624;53.250;7.456;2022-12-07T11:38:37;11.08;57.29
22917;DHT22;11624;53.250;7.456;2022-12-07T11:41:06;11.03;56.89
22917;DHT22;11624;53.250;7.456;2022-12-07T11:43:52;11.13;56.84
22917;DHT22;11624;53.250;7.456;2022-12-07T11:46:26;11.36;57.10
22917;DHT22;11624;53.250;7.456;2022-12-07T11:49:01;11.91;56.38
22917;DHT22;11624;53.250;7.456;2022-12-07T11:51:33;12.59;56.38
22917;DHT22;11624;53.250;7.456;2022-12-07T11:54:09;13.29;53.55
22917;DHT22;11624;53.250;7.456;2022-12-07T11:56:38;13.48;51.99
22917;DHT22;11624;53.250;7.456;2022-12-07T11:59:12;13.61;51.04
22917;DHT22;11624;53.250;7.456;2022-12-07T12:01:50;13.37;48.45
22917;DHT22;11624;53.250;7.456;2022-12-07T12:04:27;13.49;49.24
22917;DHT22;11624;53.250;7.456;2022-12-07T12:06:58;13.48;49.20
22917;DHT22;11624;53.250;7.456;2022-12-07T12:09:50;13.18;49.56
22917;DHT22;11624;53.250;7.456;2022-12-07T12:12:31;12.80;49.83
22917;DHT22;11624;53.250;7.456;2022-12-07T12:15:36;12.72;50.51
22917;DHT22;11624;53.250;7.456;2022-12-07T12:18:30;12.58;50.16
22917;DHT22;11624;53.250;7.456;2022-12-07T12:21:04;12.43;51.01
22917;DHT22;11624;53.250;7.456;2022-12-07T12:23:39;12.48;50.82
22917;DHT22;11624;53.250;7.456;2022-12-07T12:26:16;12.31;50.95
22917;DHT22;11624;53.250;7.456;2022-12-07T12:28:52;12.10;51.64
22917;DHT22;11624;53.250;7.456;2022-12-07T12:31:40;12.04;51.69
22917;DHT22;11624;53.250;7.456;2022-12-07T12:34:34;12.13;52.07
22917;DHT22;11624;53.250;7.456;2022-12-07T12:37:43;12.01;52.83
22917;DHT22;11624;53.250;7.456;2022-12-07T12:40:45;12.07;52.51
22917;DHT22;11624;53.250;7.456;2022-12-07T12:43:49;11.94;52.81
22917;DHT22;11624;53.250;7.456;2022-12-07T12:46:52;11.92;53.57
22917;DHT22;11624;53.250;7.456;2022-12-07T12:49:40;11.88;53.82
22917;DHT22;11624;53.250;7.456;2022-12-07T12:55:25;11.63;54.31
22917;DHT22;11624;53.250;7.456;2022-12-07T12:58:22;11.97;54.94
22917;DHT22;11624;53.250;7.456;2022-12-07T13:04:28;13.33;51.37
22917;DHT22;11624;53.250;7.456;2022-12-07T13:06:58;13.76;50.94
22917;DHT22;11624;53.250;7.456;2022-12-07T13:09:28;13.97;50.00
22917;DHT22;11624;53.250;7.456;2022-12-07T13:12:03;13.61;48.59
22917;DHT22;11624;53.250;7.456;2022-12-07T13:14:58;13.15;49.07
22917;DHT22;11624;53.250;7.456;2022-12-07T13:17:59;12.82;50.28
22917;DHT22;11624;53.250;7.456;2022-12-07T13:20:51;12.60;49.95
22917;DHT22;11624;53.250;7.456;2022-12-07T13:23:27;12.33;50.71
22917;DHT22;11624;53.250;7.456;2022-12-07T13:26:15;12.12;51.47
22917;DHT22;11624;53.250;7.456;2022-12-07T13:28:46;12.03;51.60
22917;DHT22;11624;53.250;7.456;2022-12-07T13:31:33;11.76;51.80
22917;DHT22;11624;53.250;7.456;2022-12-07T13:34:03;11.71;52.37
22917;DHT22;11624;53.250;7.456;2022-12-07T13:36:36;11.53;52.77
22917;DHT22;11624;53.250;7.456;2022-12-07T13:39:18;11.60;53.00
22917;DHT22;11624;53.250;7.456;2022-12-07T13:41:50;11.74;53.27
22917;DHT22;11624;53.250;7.456;2022-12-07T13:44:19;11.68;52.45
22917;DHT22;11624;53.250;7.456;2022-12-07T13:46:54;11.54;52.26
22917;DHT22;11624;53.250;7.456;2022-12-07T13:49:25;11.32;53.04
22917;DHT22;11624;53.250;7.456;2022-12-07T13:51:54;11.24;53.38
22917;DHT22;11624;53.250;7.456;2022-12-07T13:54:24;11.12;53.80
22917;DHT22;11624;53.250;7.456;2022-12-07T13:56:52;10.98;54.27
22917;DHT22;11624;53.250;7.456;2022-12-07T13:59:21;10.82;55.12
22917;DHT22;11624;53.250;7.456;2022-12-07T14:01:51;10.87;55.07
22917;DHT22;11624;53.250;7.456;2022-12-07T14:04:30;10.86;55.15
22917;DHT22;11624;53.250;7.456;2022-12-07T14:06:59;10.88;55.31
22917;DHT22;11624;53.250;7.456;2022-12-07T14:09:30;10.84;55.84
22917;DHT22;11624;53.250;7.456;2022-12-07T14:11:58;10.84;55.90
22917;DHT22;11624;53.250;7.456;2022-12-07T14:14:29;10.73;56.55
22917;DHT22;11624;53.250;7.456;2022-12-07T14:17:11;10.66;56.61
22917;DHT22;11624;53.250;7.456;2022-12-07T14:19:45;10.50;57.51
22917;DHT22;11624;53.250;7.456;2022-12-07T14:22:30;10.53;57.16
22917;DHT22;11624;53.250;7.456;2022-12-07T14:25:02;10.40;57.82
22917;DHT22;11624;53.250;7.456;2022-12-07T14:27:47;10.35;57.95
22917;DHT22;11624;53.250;7.456;2022-12-07T14:30:17;10.28;58.27
22917;DHT22;11624;53.250;7.456;2022-12-07T14:32:53;10.15;58.56
22917;DHT22;11624;53.250;7.456;2022-12-07T14:35:22;10.07;59.22
22917;DHT22;11624;53.250;7.456;2022-12-07T14:37:50;9.94;59.86
22917;DHT22;11624;53.250;7.456;2022-12-07T14:40:22;9.86;60.51
22917;DHT22;11624;53.250;7.456;2022-12-07T14:42:54;9.75;60.64
22917;DHT22;11624;53.250;7.456;2022-12-07T14:45:23;9.77;60.41
22917;DHT22;11624;53.250;7.456;2022-12-07T14:47:51;9.80;59.94
22917;DHT22;11624;53.250;7.456;2022-12-07T14:50:42;9.81;59.44
22917;DHT22;11624;53.250;7.456;2022-12-07T14:53:34;9.74;59.34
22917;DHT22;11624;53.250;7.456;2022-12-07T14:56:05;9.68;59.48
22917;DHT22;11624;53.250;7.456;2022-12-07T14:58:33;9.67;59.28
22917;DHT22;11624;53.250;7.456;2022-12-07T15:01:02;9.65;59.10
22917;DHT22;11624;53.250;7.456;2022-12-07T15:03:30;9.50;59.34
22917;DHT22;11624;53.250;7.456;2022-12-07T15:05:58;9.50;59.17
22917;DHT22;11624;53.250;7.456;2022-12-07T15:08:26;9.46;59.19
22917;DHT22;11624;53.250;7.456;2022-12-07T15:10:54;9.40;59.38
22917;DHT22;11624;53.250;7.456;2022-12-07T15:13:24;9.36;59.32
22917;DHT22;11624;53.250;7.456;2022-12-07T15:16:11;9.26;59.60
22917;DHT22;11624;53.250;7.456;2022-12-07T15:18:40;9.17;59.93
22917;DHT22;11624;53.250;7.456;2022-12-07T15:21:28;9.12;60.01
22917;DHT22;11624;53.250;7.456;2022-12-07T15:23:56;9.09;59.99
22917;DHT22;11624;53.250;7.456;2022-12-07T15:26:24;9.09;60.04
22917;DHT22;11624;53.250;7.456;2022-12-07T15:28:54;9.09;60.15
22917;DHT22;11624;53.250;7.456;2022-12-07T15:31:22;9.08;60.22
22917;DHT22;11624;53.250;7.456;2022-12-07T15:34:10;9.08;60.15
22917;DHT22;11624;53.250;7.456;2022-12-07T15:36:38;9.11;60.27
22917;DHT22;11624;53.250;7.456;2022-12-07T15:39:06;9.10;60.40
22917;DHT22;11624;53.250;7.456;2022-12-07T15:41:41;9.05;60.85
22917;DHT22;11624;53.250;7.456;2022-12-07T15:44:12;9.07;60.97
22917;DHT22;11624;53.250;7.456;2022-12-07T15:46:58;9.03;61.23
22917;DHT22;11624;53.250;7.456;2022-12-07T15:49:27;8.98;61.34
22917;DHT22;11624;53.250;7.456;2022-12-07T15:51:55;8.75;61.19
22917;DHT22;11624;53.250;7.456;2022-12-07T15:54:24;8.60;60.94
22917;DHT22;11624;53.250;7.456;2022-12-07T15:56:53;8.48;60.86
22917;DHT22;11624;53.250;7.456;2022-12-07T15:59:25;8.47;60.76
22917;DHT22;11624;53.250;7.456;2022-12-07T16:01:53;8.41;61.07
22917;DHT22;11624;53.250;7.456;2022-12-07T16:04:21;8.33;61.30
22917;DHT22;11624;53.250;7.456;2022-12-07T16:06:49;8.29;61.33
22917;DHT22;11624;53.250;7.456;2022-12-07T16:09:18;8.22;61.39
22917;DHT22;11624;53.250;7.456;2022-12-07T16:11:46;8.12;61.43
22917;DHT22;11624;53.250;7.456;2022-12-07T16:14:14;8.01;61.62
22917;DHT22;11624;53.250;7.456;2022-12-07T16:16:44;7.97;61.65
22917;DHT22;11624;53.250;7.456;2022-12-07T16:19:12;7.92;61.68
22917;DHT22;11624;53.250;7.456;2022-12-07T16:21:40;7.89;61.67
22917;DHT22;11624;53.250;7.456;2022-12-07T16:24:09;7.85;61.59
22917;DHT22;11624;53.250;7.456;2022-12-07T16:26:39;7.85;61.49
22917;DHT22;11624;53.250;7.456;2022-12-07T16:29:18;7.84;61.44
22917;DHT22;11624;53.250;7.456;2022-12-07T16:31:48;7.84;61.36